createdAt,value
2023-02-17T00:02:17.546Z,74.50
2023-02-17T00:04:44.130Z,74.40
2023-02-17T00:07:10.774Z,74.30
2023-02-17T00:09:37.492Z,75.00
2023-02-17T00:12:04.244Z,75.10
2023-02-17T00:14:30.896Z,75.00
2023-02-17T00:16:57.585Z,75.40
2023-02-17T00:19:25.308Z,74.80
2023-02-17T00:21:53.657Z,74.80
2023-02-17T00:24:20.388Z,75.20
2023-02-17T00:26:46.964Z,75.10
2023-02-17T00:29:13.926Z,75.00
2023-02-17T00:31:40.578Z,75.20
2023-02-17T00:34:07.373Z,74.50
2023-02-17T00:36:34.190Z,75.00
2023-02-17T00:39:00.855Z,75.10
2023-02-17T00:41:28.253Z,74.60
2023-02-17T00:43:55.196Z,75.10
2023-02-17T00:46:22.015Z,74.50
2023-02-17T00:48:48.940Z,74.80
2023-02-17T00:51:16.409Z,75.10
2023-02-17T00:53:43.092Z,75.00
2023-02-17T00:56:09.957Z,75.10
2023-02-17T00:58:36.594Z,74.90
2023-02-17T01:01:03.511Z,75.20
2023-02-17T01:03:30.328Z,74.80
2023-02-17T01:05:57.134Z,74.90
2023-02-17T01:08:24.030Z,74.80
2023-02-17T01:10:50.970Z,75.40
2023-02-17T01:13:18.557Z,75.30
2023-02-17T01:15:47.148Z,75.50
2023-02-17T01:18:13.912Z,75.20
2023-02-17T01:20:40.868Z,76.00
2023-02-17T01:23:08.113Z,75.80
2023-02-17T01:25:38.311Z,76.20
2023-02-17T01:28:05.631Z,76.10
2023-02-17T01:30:32.375Z,76.20
2023-02-17T01:32:59.009Z,76.40
2023-02-17T01:35:25.650Z,76.50
2023-02-17T01:37:52.271Z,76.30
2023-02-17T01:40:19.190Z,76.40
2023-02-17T01:42:45.797Z,76.60
2023-02-17T01:45:18.594Z,76.80
2023-02-17T01:47:45.172Z,77.10
2023-02-17T01:50:11.925Z,77.40
2023-02-17T01:52:39.661Z,77.50
2023-02-17T01:55:08.943Z,77.60
2023-02-17T01:57:36.837Z,77.80
2023-02-17T02:00:04.765Z,77.50
2023-02-17T02:02:32.074Z,77.40
2023-02-17T02:04:58.945Z,77.30
2023-02-17T02:07:30.447Z,77.10
2023-02-17T02:09:58.040Z,77.10
2023-02-17T02:12:29.849Z,77.10
2023-02-17T02:15:07.987Z,77.70
2023-02-17T02:17:49.843Z,77.60
2023-02-17T02:20:19.511Z,77.50
2023-02-17T02:22:46.083Z,77.70
2023-02-17T02:25:12.654Z,77.30
2023-02-17T02:27:52.280Z,76.90
2023-02-17T02:30:37.801Z,77.00
2023-02-17T02:33:24.691Z,77.70
2023-02-17T02:35:56.457Z,76.80
2023-02-17T02:38:32.726Z,76.30
2023-02-17T02:41:11.241Z,76.60
2023-02-17T02:43:38.098Z,76.40
2023-02-17T02:46:05.306Z,77.30
2023-02-17T02:48:32.227Z,77.20
2023-02-17T02:51:06.438Z,76.90
2023-02-17T02:53:45.859Z,76.20
2023-02-17T02:56:26.278Z,76.60
2023-02-17T02:59:16.038Z,76.20
2023-02-17T03:02:01.115Z,76.80
2023-02-17T03:04:36.360Z,76.50
2023-02-17T03:07:24.220Z,76.30
2023-02-17T03:09:51.811Z,75.90
2023-02-17T03:12:19.212Z,76.50
2023-02-17T03:14:47.806Z,76.10
2023-02-17T03:17:14.417Z,77.20
2023-02-17T03:19:41.268Z,76.50
2023-02-17T03:22:14.046Z,76.70
2023-02-17T03:24:40.661Z,76.60
2023-02-17T03:27:07.423Z,76.50
2023-02-17T03:29:34.046Z,75.90
2023-02-17T03:32:00.858Z,76.00
2023-02-17T03:34:27.571Z,75.80
2023-02-17T03:36:54.284Z,75.80
2023-02-17T03:39:20.920Z,75.60
2023-02-17T03:41:50.453Z,75.80
2023-02-17T03:44:20.278Z,75.50
2023-02-17T03:46:47.000Z,74.70
2023-02-17T03:49:13.720Z,74.90
2023-02-17T03:51:40.468Z,74.90
2023-02-17T03:54:07.412Z,75.00
2023-02-17T03:56:34.045Z,74.60
2023-02-17T03:59:00.669Z,74.70
2023-02-17T04:01:27.338Z,74.90
2023-02-17T04:03:54.123Z,74.70
2023-02-17T04:06:20.811Z,74.20
2023-02-17T04:08:47.504Z,74.60
2023-02-17T04:11:14.173Z,74.40
2023-02-17T04:13:40.830Z,74.30
2023-02-17T04:16:08.797Z,74.10
2023-02-17T04:18:35.663Z,74.50
2023-02-17T04:21:02.326Z,74.20
2023-02-17T04:23:28.926Z,73.60
2023-02-17T04:25:55.503Z,74.30
2023-02-17T04:28:22.305Z,74.40
2023-02-17T04:30:50.125Z,74.10
2023-02-17T04:33:17.592Z,74.10
2023-02-17T04:35:44.262Z,74.30
2023-02-17T04:38:10.960Z,73.80
2023-02-17T04:40:37.941Z,74.00
2023-02-17T04:43:04.626Z,73.40
2023-02-17T04:45:31.334Z,73.20
2023-02-17T04:47:57.945Z,72.90
2023-02-17T04:50:24.752Z,72.70
2023-02-17T04:52:51.383Z,73.00
2023-02-17T04:55:18.141Z,72.60
2023-02-17T04:57:44.736Z,72.50
2023-02-17T05:00:11.904Z,72.70
2023-02-17T05:02:38.504Z,72.30
2023-02-17T05:05:05.480Z,72.30
2023-02-17T05:07:32.143Z,72.30
2023-02-17T05:09:58.736Z,72.40
2023-02-17T05:12:25.429Z,72.30
2023-02-17T05:14:52.057Z,72.30
2023-02-17T05:17:18.690Z,72.30
2023-02-17T05:19:45.306Z,72.20
2023-02-17T05:22:11.932Z,72.70
2023-02-17T05:24:38.988Z,72.70
2023-02-17T05:27:05.737Z,72.70
2023-02-17T05:29:32.417Z,72.50
2023-02-17T05:31:59.152Z,73.10
2023-02-17T05:34:25.873Z,73.10
2023-02-17T05:36:52.725Z,73.10
2023-02-17T05:39:19.434Z,74.00
2023-02-17T05:41:46.009Z,73.10
2023-02-17T05:44:12.639Z,72.90
2023-02-17T05:46:39.411Z,73.80
2023-02-17T05:49:06.082Z,73.50
2023-02-17T05:51:32.770Z,72.30
2023-02-17T05:53:59.372Z,72.60
2023-02-17T05:56:26.028Z,72.90
2023-02-17T05:58:52.619Z,72.70
2023-02-17T06:01:19.255Z,73.30
2023-02-17T06:03:46.002Z,72.80
2023-02-17T06:06:12.643Z,72.30
2023-02-17T06:08:39.675Z,72.50
2023-02-17T06:11:06.410Z,72.80
2023-02-17T06:13:33.052Z,72.50
2023-02-17T06:15:59.874Z,72.70
2023-02-17T06:18:26.567Z,73.00
2023-02-17T06:20:55.838Z,73.00
2023-02-17T06:23:22.785Z,73.20
2023-02-17T06:25:49.421Z,73.10
2023-02-17T06:28:16.018Z,73.00
2023-02-17T06:30:42.622Z,73.50
2023-02-17T06:33:09.514Z,73.70
2023-02-17T06:35:36.108Z,76.00
2023-02-17T06:38:02.737Z,78.70
2023-02-17T06:40:29.519Z,79.30
2023-02-17T06:42:56.109Z,81.00
2023-02-17T06:45:22.757Z,81.70
2023-02-17T06:47:49.381Z,82.00
2023-02-17T06:50:16.115Z,81.60
2023-02-17T06:52:42.717Z,82.00
2023-02-17T06:55:09.442Z,81.80
2023-02-17T06:57:36.070Z,82.10
2023-02-17T07:00:03.008Z,81.80
2023-02-17T07:02:29.725Z,81.30
2023-02-17T07:04:56.418Z,81.50
2023-02-17T07:07:23.012Z,81.20
2023-02-17T07:09:49.684Z,80.80
2023-02-17T07:12:16.352Z,80.60
2023-02-17T07:14:43.010Z,81.30
2023-02-17T07:17:09.671Z,81.50
2023-02-17T07:19:36.394Z,81.90
2023-02-17T07:22:03.025Z,82.30
2023-02-17T07:24:29.673Z,83.00
2023-02-17T07:26:56.333Z,82.10
2023-02-17T07:29:23.055Z,82.00
2023-02-17T07:31:49.793Z,81.50
2023-02-17T07:34:16.430Z,80.70
2023-02-17T07:36:43.069Z,80.80
2023-02-17T07:39:09.732Z,80.50
2023-02-17T07:41:36.357Z,80.30
2023-02-17T07:44:02.977Z,79.90
2023-02-17T07:46:29.608Z,79.70
2023-02-17T07:48:56.979Z,79.00
2023-02-17T07:51:23.993Z,78.40
2023-02-17T07:53:51.181Z,77.90
2023-02-17T07:56:19.194Z,78.10
2023-02-17T07:58:45.851Z,78.10
2023-02-17T08:01:16.825Z,78.20
2023-02-17T08:03:43.982Z,78.10
2023-02-17T08:06:14.831Z,78.00
2023-02-17T08:09:00.097Z,78.40
2023-02-17T08:11:46.488Z,78.40
2023-02-17T08:14:14.510Z,79.00
2023-02-17T08:16:41.147Z,79.70
2023-02-17T08:19:07.942Z,80.00
2023-02-17T08:21:34.780Z,80.80
2023-02-17T08:24:01.438Z,80.90
2023-02-17T08:26:28.277Z,82.00
2023-02-17T08:28:55.417Z,81.50
2023-02-17T08:31:23.898Z,81.90
2023-02-17T08:33:50.785Z,82.20
2023-02-17T08:36:17.753Z,82.50
2023-02-17T08:38:50.142Z,82.40
2023-02-17T08:41:16.747Z,82.40
2023-02-17T08:43:43.905Z,82.10
2023-02-17T08:46:11.655Z,82.10
2023-02-17T08:48:38.428Z,82.10
2023-02-17T08:51:05.312Z,82.00
2023-02-17T08:53:32.064Z,81.70
2023-02-17T08:55:58.957Z,81.60
2023-02-17T08:58:25.941Z,81.80
2023-02-17T09:00:52.597Z,82.40
2023-02-17T09:03:19.241Z,81.90
2023-02-17T09:05:45.860Z,81.80
2023-02-17T09:08:12.461Z,82.20
2023-02-17T09:10:39.107Z,82.00
2023-02-17T09:13:05.825Z,82.40
2023-02-17T09:15:32.526Z,83.20
2023-02-17T09:17:59.161Z,83.80
2023-02-17T09:20:25.774Z,83.90
2023-02-17T09:22:52.647Z,84.90
2023-02-17T09:25:19.409Z,86.60
2023-02-17T09:27:46.067Z,87.40
2023-02-17T09:30:13.106Z,87.10
2023-02-17T09:32:43.144Z,87.80
2023-02-17T09:35:13.931Z,88.00
2023-02-17T09:37:40.624Z,88.20
2023-02-17T09:40:08.648Z,87.90
2023-02-17T09:42:38.930Z,87.90
2023-02-17T09:45:08.468Z,87.70
2023-02-17T09:47:38.383Z,87.50
2023-02-17T09:50:15.967Z,86.60
2023-02-17T09:52:42.555Z,86.60
2023-02-17T09:55:13.537Z,85.40
2023-02-17T09:57:42.657Z,84.90
2023-02-17T10:00:12.395Z,84.90
2023-02-17T10:02:41.826Z,84.40
2023-02-17T10:05:11.391Z,83.60
2023-02-17T10:07:47.118Z,83.40
2023-02-17T10:10:16.287Z,81.70
2023-02-17T10:12:51.871Z,81.70
2023-02-17T10:15:20.992Z,81.60
2023-02-17T10:18:08.470Z,81.70
2023-02-17T10:20:39.679Z,81.50
2023-02-17T10:23:18.369Z,80.90
2023-02-17T10:26:05.360Z,80.10
2023-02-17T10:28:52.349Z,79.40
2023-02-17T10:31:19.045Z,79.40
2023-02-17T10:34:07.006Z,79.10
2023-02-17T10:36:52.025Z,79.20
2023-02-17T10:39:24.921Z,79.50
2023-02-17T10:41:51.885Z,79.60
2023-02-17T10:44:21.294Z,79.00
2023-02-17T10:46:48.585Z,78.40
2023-02-17T10:49:26.941Z,77.60
2023-02-17T10:51:53.553Z,76.90
2023-02-17T10:54:32.681Z,77.00
2023-02-17T10:57:01.234Z,77.00
2023-02-17T10:59:30.065Z,76.60
2023-02-17T11:01:59.904Z,76.90
2023-02-17T11:04:26.539Z,76.60
2023-02-17T11:06:55.217Z,76.60
2023-02-17T11:09:21.900Z,75.40
2023-02-17T11:11:59.434Z,73.50
2023-02-17T11:14:27.500Z,73.10
2023-02-17T11:17:23.647Z,72.10
2023-02-17T11:19:55.062Z,71.50
2023-02-17T11:22:51.068Z,71.80
2023-02-17T11:25:25.260Z,70.60
2023-02-17T11:27:52.644Z,70.30
2023-02-17T11:30:19.840Z,70.90
2023-02-17T11:32:47.032Z,71.40
2023-02-17T11:35:41.597Z,70.80
2023-02-17T11:38:16.090Z,70.80
2023-02-17T11:40:53.836Z,71.10
2023-02-17T11:43:20.812Z,71.30
2023-02-17T11:45:47.403Z,71.70
2023-02-17T11:48:26.077Z,72.10
2023-02-17T11:51:15.751Z,71.30
2023-02-17T11:54:01.321Z,71.90
2023-02-17T11:56:34.286Z,72.00
2023-02-17T11:59:15.738Z,71.60
2023-02-17T12:01:49.052Z,72.00
2023-02-17T12:04:18.684Z,72.00
2023-02-17T12:07:04.055Z,72.50
2023-02-17T12:09:42.885Z,72.70
2023-02-17T12:12:28.405Z,73.30
2023-02-17T12:15:24.404Z,73.30
2023-02-17T12:17:50.996Z,73.60
2023-02-17T12:20:36.058Z,74.10
2023-02-17T12:23:08.677Z,74.00
2023-02-17T12:25:58.582Z,74.50
2023-02-17T12:28:34.383Z,74.90
2023-02-17T12:31:03.403Z,74.30
2023-02-17T12:33:36.339Z,73.30
2023-02-17T12:36:05.438Z,73.20
2023-02-17T12:38:34.449Z,74.00
2023-02-17T12:41:20.117Z,75.00
2023-02-17T12:43:58.165Z,75.60
2023-02-17T12:46:27.553Z,76.10
2023-02-17T12:48:57.662Z,76.10
2023-02-17T12:51:24.299Z,76.40
2023-02-17T12:53:54.441Z,77.00
2023-02-17T12:56:31.238Z,77.60
2023-02-17T12:59:13.251Z,78.60
2023-02-17T13:01:43.729Z,79.10
2023-02-17T13:04:15.119Z,79.30
2023-02-17T13:06:45.250Z,79.00
2023-02-17T13:09:27.362Z,78.90
2023-02-17T13:11:54.018Z,78.50
2023-02-17T13:14:26.662Z,78.60
2023-02-17T13:16:53.327Z,79.40
2023-02-17T13:19:33.982Z,80.00
2023-02-17T13:22:02.357Z,80.10
2023-02-17T13:24:36.749Z,81.00
2023-02-17T13:27:11.032Z,81.30
2023-02-17T13:29:37.957Z,82.10
2023-02-17T13:32:06.604Z,82.60
2023-02-17T13:34:36.317Z,82.90
2023-02-17T13:37:18.358Z,82.90
2023-02-17T13:39:45.164Z,83.20
2023-02-17T13:42:44.383Z,83.50
2023-02-17T13:45:29.185Z,83.60
2023-02-17T13:47:57.513Z,83.90
2023-02-17T13:50:28.234Z,83.90
2023-02-17T13:52:55.413Z,83.70
2023-02-17T13:55:23.842Z,83.70
2023-02-17T13:57:54.225Z,84.10
2023-02-17T14:00:25.481Z,84.00
2023-02-17T14:02:56.742Z,84.50
2023-02-17T14:05:27.233Z,84.60
2023-02-17T14:07:57.545Z,82.90
2023-02-17T14:10:25.801Z,81.90
2023-02-17T14:12:52.912Z,81.00
2023-02-17T14:15:21.343Z,80.20
2023-02-17T14:17:48.024Z,79.70
2023-02-17T14:20:24.716Z,78.40
2023-02-17T14:23:04.034Z,78.90
2023-02-17T14:25:32.516Z,79.80
2023-02-17T14:27:59.150Z,80.70
2023-02-17T14:30:30.897Z,81.50
2023-02-17T14:33:07.695Z,82.20
2023-02-17T14:35:35.445Z,83.00
2023-02-17T14:38:10.224Z,83.80
2023-02-17T14:40:39.691Z,84.50
2023-02-17T14:43:06.663Z,83.30
2023-02-17T14:45:33.319Z,82.70
2023-02-17T14:47:59.986Z,82.80
2023-02-17T14:50:26.709Z,82.90
2023-02-17T14:52:53.563Z,83.90
2023-02-17T14:55:20.173Z,83.50
2023-02-17T14:57:46.802Z,84.10
2023-02-17T15:00:14.243Z,84.30
2023-02-17T15:02:41.052Z,84.40
2023-02-17T15:05:07.940Z,84.50
2023-02-17T15:07:35.086Z,84.80
2023-02-17T15:10:01.817Z,84.80
2023-02-17T15:12:28.512Z,85.00
2023-02-17T15:14:55.242Z,85.10
2023-02-17T15:17:21.985Z,85.60
2023-02-17T15:19:49.320Z,85.90
2023-02-17T15:22:15.978Z,86.20
2023-02-17T15:24:42.726Z,85.80
2023-02-17T15:27:13.848Z,86.00
2023-02-17T15:29:40.464Z,85.60
2023-02-17T15:32:12.417Z,85.90
2023-02-17T15:34:39.053Z,86.30
2023-02-17T15:37:05.645Z,86.70
2023-02-17T15:39:32.253Z,87.20
2023-02-17T15:42:00.695Z,87.80
2023-02-17T15:44:30.885Z,88.70
2023-02-17T15:46:57.562Z,88.80
2023-02-17T15:49:24.227Z,90.40
2023-02-17T15:51:50.840Z,91.20
2023-02-17T15:54:19.345Z,91.30
2023-02-17T15:56:50.690Z,91.60
2023-02-17T15:59:25.463Z,91.70
2023-02-17T16:01:52.834Z,91.50
2023-02-17T16:04:19.731Z,92.00
2023-02-17T16:06:46.353Z,91.80
2023-02-17T16:09:12.965Z,91.40
2023-02-17T16:11:53.110Z,91.50
2023-02-17T16:14:39.967Z,91.50
2023-02-17T16:17:12.310Z,91.70
2023-02-17T16:19:38.949Z,91.90
2023-02-17T16:22:05.610Z,92.10
2023-02-17T16:24:32.201Z,92.20
2023-02-17T16:26:59.323Z,92.20
2023-02-17T16:29:25.964Z,92.30
2023-02-17T16:31:52.843Z,92.40
2023-02-17T16:34:22.968Z,92.50
2023-02-17T16:36:50.626Z,92.70
2023-02-17T16:39:18.102Z,92.80
2023-02-17T16:41:44.720Z,93.10
2023-02-17T16:44:15.045Z,93.40
2023-02-17T16:46:46.799Z,93.50
2023-02-17T16:49:18.839Z,93.80
2023-02-17T16:51:45.534Z,94.10
2023-02-17T16:54:12.195Z,94.30
2023-02-17T16:56:43.470Z,94.50
2023-02-17T16:59:18.595Z,94.80
2023-02-17T17:01:45.762Z,95.00
2023-02-17T17:04:12.397Z,95.20
2023-02-17T17:06:42.157Z,95.40
2023-02-17T17:09:08.978Z,95.60
2023-02-17T17:11:35.681Z,95.80
2023-02-17T17:14:02.285Z,96.00
2023-02-17T17:16:31.124Z,96.20
2023-02-17T17:18:58.128Z,96.30
2023-02-17T17:21:24.913Z,96.30
2023-02-17T17:23:51.561Z,96.30
2023-02-17T17:26:18.161Z,96.40
2023-02-17T17:28:44.802Z,96.40
2023-02-17T17:31:11.477Z,96.50
2023-02-17T17:33:38.078Z,96.60
2023-02-17T17:36:11.641Z,96.70
2023-02-17T17:38:38.267Z,96.70
2023-02-17T17:41:04.919Z,96.90
2023-02-17T17:43:31.543Z,96.90
2023-02-17T17:45:58.251Z,96.90
2023-02-17T17:48:24.961Z,97.00
2023-02-17T17:50:51.573Z,97.00
2023-02-17T17:53:18.226Z,97.00
2023-02-17T17:55:46.025Z,97.00
2023-02-17T17:58:12.656Z,97.10
2023-02-17T18:00:39.250Z,97.20
2023-02-17T18:03:06.068Z,97.20
2023-02-17T18:05:32.716Z,97.10
2023-02-17T18:08:00.391Z,97.20
2023-02-17T18:10:26.990Z,97.20
2023-02-17T18:12:53.698Z,97.30
2023-02-17T18:15:20.378Z,97.50
2023-02-17T18:17:47.772Z,97.60
2023-02-17T18:20:14.533Z,97.60
2023-02-17T18:22:41.408Z,97.60
2023-02-17T18:25:08.055Z,97.70
2023-02-17T18:27:41.444Z,97.80
2023-02-17T18:30:09.024Z,98.00
2023-02-17T18:32:35.632Z,98.00
2023-02-17T18:35:02.389Z,98.00
2023-02-17T18:37:28.988Z,98.00
2023-02-17T18:39:55.672Z,98.00
2023-02-17T18:42:22.353Z,98.10
2023-02-17T18:44:49.005Z,98.00
2023-02-17T18:47:15.721Z,98.20
2023-02-17T18:49:42.290Z,98.20
2023-02-17T18:52:08.962Z,98.40
2023-02-17T18:54:40.297Z,98.30
2023-02-17T18:57:06.900Z,98.60
2023-02-17T18:59:33.531Z,98.50
2023-02-17T19:02:00.952Z,98.70
2023-02-17T19:04:27.591Z,98.80
2023-02-17T19:06:54.176Z,98.90
2023-02-17T19:09:20.802Z,99.00
2023-02-17T19:11:47.424Z,99.10
2023-02-17T19:14:14.100Z,99.30
2023-02-17T19:16:40.692Z,99.50
2023-02-17T19:19:07.299Z,99.60
2023-02-17T19:21:36.272Z,99.80
2023-02-17T19:24:03.141Z,99.80
2023-02-17T19:26:29.840Z,99.90
2023-02-17T19:28:56.448Z,99.90
2023-02-17T19:31:23.585Z,99.90
2023-02-17T19:33:50.236Z,99.90
2023-02-17T19:36:18.552Z,99.90
2023-02-17T19:38:45.325Z,99.90
2023-02-17T19:41:12.506Z,99.90
2023-02-17T19:43:39.397Z,99.90
2023-02-17T19:46:06.452Z,99.90
2023-02-17T19:48:34.384Z,99.90
2023-02-17T19:51:04.946Z,99.90
2023-02-17T19:53:31.944Z,99.90
2023-02-17T19:56:15.291Z,99.90
2023-02-17T19:58:42.781Z,99.90
2023-02-17T20:01:10.658Z,99.90
2023-02-17T20:03:37.302Z,99.90
2023-02-17T20:06:11.658Z,99.90
2023-02-17T20:08:38.710Z,99.90
2023-02-17T20:11:07.768Z,99.90
2023-02-17T20:13:45.335Z,99.90
2023-02-17T20:16:13.808Z,99.90
2023-02-17T20:18:41.536Z,99.90
2023-02-17T20:21:09.547Z,99.90
2023-02-17T20:23:36.441Z,99.90
2023-02-17T20:26:07.900Z,99.90
2023-02-17T20:28:35.073Z,99.90
2023-02-17T20:31:01.857Z,99.90
2023-02-17T20:33:28.518Z,99.90
2023-02-17T20:35:55.150Z,99.90
2023-02-17T20:38:21.807Z,99.90
2023-02-17T20:40:48.625Z,99.90
2023-02-17T20:43:15.344Z,99.90
2023-02-17T20:45:42.609Z,99.90
2023-02-17T20:48:09.679Z,99.90
2023-02-17T20:50:36.581Z,99.90
2023-02-17T20:53:03.509Z,99.90
2023-02-17T20:55:30.396Z,99.90
2023-02-17T20:57:57.225Z,99.90
2023-02-17T21:00:24.626Z,99.90
2023-02-17T21:02:52.369Z,99.90
2023-02-17T21:05:19.660Z,99.90
2023-02-17T21:07:46.253Z,99.90
2023-02-17T21:10:16.827Z,99.90
2023-02-17T21:12:43.511Z,99.90
2023-02-17T21:15:10.397Z,99.90
2023-02-17T21:17:37.061Z,99.90
2023-02-17T21:20:04.993Z,99.90
2023-02-17T21:22:31.599Z,99.90
2023-02-17T21:24:58.207Z,99.90
2023-02-17T21:27:24.824Z,99.90
2023-02-17T21:29:51.490Z,99.90
2023-02-17T21:32:18.260Z,99.90
2023-02-17T21:34:44.941Z,99.90
2023-02-17T21:37:11.763Z,99.90
2023-02-17T21:39:38.364Z,99.90
2023-02-17T21:42:05.021Z,99.90
2023-02-17T21:44:50.184Z,99.90
2023-02-17T21:47:16.868Z,99.90
2023-02-17T21:49:44.131Z,99.90
2023-02-17T21:52:10.830Z,99.90
2023-02-17T21:54:37.474Z,99.90
2023-02-17T21:57:04.581Z,99.90
2023-02-17T21:59:31.333Z,99.90
2023-02-17T22:01:58.098Z,99.90
2023-02-17T22:04:26.444Z,99.90
2023-02-17T22:06:53.090Z,99.90
2023-02-17T22:09:19.829Z,99.90
2023-02-17T22:11:46.975Z,99.90
2023-02-17T22:14:14.942Z,99.90
2023-02-17T22:16:41.781Z,99.90
2023-02-17T22:19:09.115Z,99.90
2023-02-17T22:21:35.731Z,99.90
2023-02-17T22:24:02.698Z,99.90
2023-02-17T22:26:29.639Z,99.90
2023-02-17T22:28:56.718Z,99.90
2023-02-17T22:31:24.913Z,99.90
2023-02-17T22:33:51.580Z,99.90
2023-02-17T22:36:19.658Z,99.90
2023-02-17T22:38:46.343Z,99.90
2023-02-17T22:41:15.161Z,99.90
2023-02-17T22:43:42.347Z,99.90
2023-02-17T22:46:10.283Z,99.90
2023-02-17T22:48:37.855Z,99.90
2023-02-17T22:51:08.382Z,99.90
2023-02-17T22:53:35.374Z,99.90
2023-02-17T22:56:02.025Z,99.90
2023-02-17T22:58:28.859Z,99.90
2023-02-17T23:01:06.274Z,99.90
2023-02-17T23:03:33.409Z,99.90
2023-02-17T23:06:04.384Z,99.90
2023-02-17T23:08:31.380Z,99.90
2023-02-17T23:10:58.089Z,99.90
2023-02-17T23:13:25.197Z,99.90
2023-02-17T23:15:51.926Z,99.90
2023-02-17T23:18:19.528Z,99.90
2023-02-17T23:20:47.379Z,99.90
2023-02-17T23:23:14.690Z,99.90
2023-02-17T23:25:42.771Z,99.90
2023-02-17T23:28:10.861Z,99.90
2023-02-17T23:30:37.607Z,99.90
2023-02-17T23:33:04.265Z,99.90
2023-02-17T23:35:30.903Z,99.90
2023-02-17T23:37:57.620Z,99.90
2023-02-17T23:40:24.271Z,99.90
2023-02-17T23:42:50.874Z,99.90
2023-02-17T23:45:17.526Z,99.90
2023-02-17T23:47:44.134Z,99.90
2023-02-17T23:50:10.999Z,99.90
2023-02-17T23:52:37.626Z,99.90
2023-02-17T23:55:06.032Z,99.90
2023-02-17T23:57:39.116Z,99.90
